ADDS METAR Data INFO
IDs: Format: Raw Decoded Include TAF

Data at: 0203 UTC 19 Jul 2018

KPRS 190155Z AUTO 13005KT 10SM CLR 37/07 A2995 RMK AO2 T03660074
KPRS 190135Z AUTO 14005KT 10SM CLR 38/08 A2994 RMK AO2 T03750075
KPRS 190115Z AUTO 08006KT 10SM CLR 38/08 A2994 RMK AO2 T03810075
KPRS 190055Z AUTO 16004KT 10SM CLR 38/08 A2994 RMK AO2 T03810082
KPRS 190035Z AUTO 07003KT 10SM CLR 38/09 A2995 RMK AO2 T03840085
KPRS 190015Z AUTO 00000KT 10SM CLR 38/08 A2995 RMK AO2 T03840081
KPRS 182355Z AUTO 00000KT 10SM CLR 38/08 A2995 RMK AO2 T03800079 10392 20340
KPRS 182335Z AUTO 22003KT 10SM CLR 38/08 A2995 RMK AO2 T03790078
KPRS 182315Z AUTO 10005KT 10SM CLR 38/08 A2996 RMK AO2 T03790078
KPRS 182255Z AUTO 05005KT 10SM SCT120 38/08 A2998 RMK AO2 T03830079
KPRS 182235Z AUTO 35005KT 10SM SCT120 39/08 A2998 RMK AO2 T03880081
KPRS 182215Z AUTO 00000KT 10SM SCT120 38/09 A2998 RMK AO2 T03810087
KPRS 182155Z AUTO 31004KT 10SM SCT120 39/09 A2999 RMK AO2 T03870091
KPRS 182135Z AUTO 35011KT 10SM BKN110 38/09 A3000 RMK AO2 T03820091
KPRS 182115Z AUTO 00000KT 10SM BKN110 38/10 A3001 RMK AO2 T03790101
KPRS 182055Z AUTO 01004KT 10SM SCT110 38/11 A3002 RMK AO2 T03820105
KPRS 182035Z AUTO 00000KT 10SM CLR 37/10 A3003 RMK AO2 T03730103
KPRS 182015Z AUTO 20005KT 10SM CLR 38/11 A3004 RMK AO2 T03750110
KPRS 181955Z AUTO 19009G16KT 150V220 10SM CLR 38/11 A3005 RMK AO2 T03750114
KPRS 181935Z AUTO 04005KT 10SM CLR 37/11 A3005 RMK AO2 T03720113
KPRS 181915Z AUTO 33005KT 10SM CLR 37/12 A3006 RMK AO2 T03670117
KPRS 181855Z AUTO 27005KT 160V290 10SM CLR 36/12 A3007 RMK AO2 T03590119
KPRS 181835Z AUTO 27007KT 10SM CLR 35/12 A3008 RMK AO2 T03540121
KPRS 181815Z AUTO 27003KT 10SM CLR 34/12 A3009 RMK AO2 T03430121
KPRS 181755Z AUTO 12004KT 10SM CLR 34/12 A3010 RMK AO2 T03390120 10341 20251
KPRS 181735Z AUTO 00000KT 10SM CLR 34/12 A3011 RMK AO2 T03400120
KPRS 181715Z AUTO 10004KT 10SM CLR 34/12 A3012 RMK AO2 T03380120
KPRS 181655Z AUTO 17006KT 120V200 10SM CLR 33/12 A3012 RMK AO2 T03290119
KPRS 181635Z AUTO 18005KT 10SM CLR 32/12 A3012 RMK AO2 T03200116
KPRS 181615Z AUTO 18006KT 10SM CLR 32/12 A3013 RMK AO2 T03160118
KPRS 181555Z AUTO 08003KT 10SM CLR 31/12 A3014 RMK AO2 T03140119
KPRS 181535Z AUTO 14004KT 10SM CLR 31/12 A3014 RMK AO2 T03110118
KPRS 181515Z AUTO 14005KT 10SM CLR 31/12 A3015 RMK AO2 T03070120
KPRS 181455Z AUTO 16005KT 10SM CLR 30/12 A3015 RMK AO2 T03040121
KPRS 181435Z AUTO 10004KT 10SM CLR 30/12 A3015 RMK AO2 T03000121
KPRS 181415Z AUTO 31007KT 10SM CLR 29/13 A3014 RMK AO2 T02870132
KPRS 181355Z AUTO 32006KT 10SM CLR 28/13 A3013 RMK AO2 T02780130
KPRS 181335Z AUTO 31006KT 10SM CLR 27/13 A3013 RMK AO2 T02690131
KPRS 181315Z AUTO 35003KT 10SM CLR 26/13 A3013 RMK AO2 T02600132
KPRS 181255Z AUTO 35003KT 10SM CLR 26/13 A3012 RMK AO2 T02550129
KPRS 181235Z AUTO 35004KT 10SM CLR 25/13 A3012 RMK AO2 T02520127
KPRS 181215Z AUTO 35007KT 10SM CLR 26/13 A3011 RMK AO2 LTG DSNT W T02550127
KPRS 181155Z AUTO 35007KT 310V010 10SM CLR 26/13 A3011 RMK AO2 T02550126 10305 20253
KPRS 181135Z AUTO 33007KT 10SM CLR 25/13 A3011 RMK AO2 T02530129
KPRS 181115Z AUTO 01005KT 10SM CLR 26/12 A3010 RMK AO2 T02600123
KPRS 181055Z AUTO 34006KT 10SM CLR 26/12 A3010 RMK AO2 T02640123
KPRS 181035Z AUTO 36007KT 10SM CLR 26/13 A3010 RMK AO2 T02640126
KPRS 181015Z AUTO 32006KT 10SM CLR 27/12 A3009 RMK AO2 T02660123
KPRS 180955Z AUTO 34007KT 10SM CLR 27/13 A3009 RMK AO2 T02670126
KPRS 180935Z AUTO 34006KT 10SM CLR 27/12 A3010 RMK AO2 T02700122
KPRS 180915Z AUTO 30006KT 10SM CLR 27/13 A3009 RMK AO2 T02710125
KPRS 180855Z AUTO 36007KT 10SM CLR 28/12 A3009 RMK AO2 T02770122
KPRS 180835Z AUTO 35005KT 10SM CLR 28/13 A3009 RMK AO2 T02810125
KPRS 180815Z AUTO 35006KT 10SM CLR 28/12 A3009 RMK AO2 T02800123
KPRS 180755Z AUTO 03004KT 10SM CLR 29/12 A3009 RMK AO2 T02890121
KPRS 180735Z AUTO 03004KT 10SM CLR 29/13 A3008 RMK AO2 T02900125
KPRS 180715Z AUTO 06004KT 10SM CLR 30/13 A3008 RMK AO2 T02950125
KPRS 180655Z AUTO 06005KT 10SM CLR 30/13 A3009 RMK AO2 T02960125
KPRS 180635Z AUTO 05005KT 10SM CLR 30/13 A3009 RMK AO2 T03020125
KPRS 180615Z AUTO 05008KT 10SM CLR 31/12 A3008 RMK AO2 T03050122
KPRS 180555Z AUTO 04007KT 10SM CLR 30/12 A3008 RMK AO2 T03020118 10370 20302 403730223
KPRS 180535Z AUTO 05006KT 10SM CLR 30/12 A3008 RMK AO2 T03040117
KPRS 180515Z AUTO 04006KT 10SM CLR 31/12 A3008 RMK AO2 T03070117
KPRS 180455Z AUTO 04007KT 10SM CLR 31/12 A3007 RMK AO2 T03110117
KPRS 180435Z AUTO 05005KT 10SM CLR 31/12 A3007 RMK AO2 T03120115
KPRS 180415Z AUTO 06005KT 10SM CLR 32/12 A3007 RMK AO2 T03170116
KPRS 180355Z AUTO 07006KT 10SM CLR 32/11 A3006 RMK AO2 T03210114
KPRS 180335Z AUTO 06006KT 10SM CLR 33/11 A3005 RMK AO2 T03260113
KPRS 180315Z AUTO 06006KT 10SM CLR 33/12 A3004 RMK AO2 T03300117
KPRS 180255Z AUTO 07007KT 10SM CLR 33/12 A3004 RMK AO2 T03330123
KPRS 180235Z AUTO 06008KT 10SM CLR 34/12 A3002 RMK AO2 T03380121
KPRS 180215Z AUTO 07006KT 10SM CLR 34/12 A3002 RMK AO2 T03420122
KPRS 180155Z AUTO 08007G14KT 060V120 10SM CLR 35/12 A3002 RMK AO2 T03460122
KPRS 180135Z AUTO 07008KT 10SM SCT120 35/13 A3002 RMK AO2 LTG DSNT SW T03500125
KPRS 180115Z AUTO 12006KT 10SM SCT110 36/12 A3002 RMK AO2 T03570121
KPRS 180055Z AUTO 07011G17KT 060V140 10SM SCT100 SCT120 36/12 A3001 RMK AO2 T03620122
KPRS 180035Z AUTO 05007KT 10SM SCT110 36/12 A3001 RMK AO2 T03640119
KPRS 180015Z AUTO 09004KT 10SM SCT110 37/10 A3001 RMK AO2 T03650104
KPRS 172355Z AUTO 06005KT 10SM CLR 37/10 A3002 RMK AO2 T03660098 10373 20312
KPRS 172335Z AUTO 06005KT 10SM CLR 37/10 A3003 RMK AO2 T03680100
KPRS 172315Z AUTO 07010G15KT 10SM SCT100 37/10 A3004 RMK AO2 T03680103
KPRS 172255Z AUTO 15007KT 10SM SCT100 37/12 A3004 RMK AO2 T03670120
KPRS 172235Z AUTO 10006KT 10SM SCT090 SCT120 37/13 A3004 RMK AO2 T03690125
KPRS 172215Z AUTO 08008G14KT 050V130 10SM SCT090 SCT120 36/13 A3005 RMK AO2 T03560125
KPRS 172155Z AUTO 11003KT 10SM CLR 37/13 A3006 RMK AO2 T03650132
KPRS 172135Z AUTO 14004KT 10SM SCT090 SCT120 36/13 A3007 RMK AO2 T03590134
KPRS 172115Z AUTO 11006KT 10SM SCT090 36/14 A3007 RMK AO2 LTG DSNT W T03590137
KPRS 172055Z AUTO 20005KT 10SM CLR 35/13 A3008 RMK AO2 T03480130
KPRS 172035Z AUTO 19003KT 10SM CLR 35/13 A3009 RMK AO2 T03480129
KPRS 172015Z AUTO 05004KT 10SM CLR 35/13 A3010 RMK AO2 T03470129
KPRS 171955Z AUTO 15004KT 10SM CLR 34/13 A3011 RMK AO2 T03380126
KPRS 171935Z AUTO 22004KT 10SM CLR 34/13 A3011 RMK AO2 T03370131
KPRS 171915Z AUTO 32008KT 10SM CLR 34/13 A3012 RMK AO2 LTG DSNT N T03390133
KPRS 171855Z AUTO 11004KT 10SM CLR 33/13 A3013 RMK AO2 T03280133
KPRS 171835Z AUTO 21003KT 10SM CLR 32/13 A3014 RMK AO2 T03210132
KPRS 171815Z AUTO 15007KT 10SM CLR 32/14 A3014 RMK AO2 T03230135
KPRS 171755Z AUTO 28003KT 10SM CLR 31/14 A3015 RMK AO2 T03140137 10318 20223
KPRS 171735Z AUTO 08004KT 10SM CLR 31/14 A3015 RMK AO2 T03130139
KPRS 171715Z AUTO 17003KT 10SM CLR 31/14 A3016 RMK AO2 T03060142
KPRS 171655Z AUTO 15005KT 10SM CLR 30/14 A3016 RMK AO2 T03000138
KPRS 171635Z AUTO 15005KT 10SM CLR 30/15 A3016 RMK AO2 T02990145
KPRS 171615Z AUTO 17003KT 10SM CLR 29/15 A3017 RMK AO2 T02900148
KPRS 171555Z AUTO 00000KT 10SM CLR 29/15 A3017 RMK AO2 T02850150
KPRS 171535Z AUTO 00000KT 10SM CLR 28/15 A3017 RMK AO2 T02770152
KPRS 171515Z AUTO 00000KT 10SM CLR 27/15 A3017 RMK AO2 T02740154
KPRS 171455Z AUTO 12003KT 10SM CLR 27/15 A3017 RMK AO2 T02690154
KPRS 171435Z AUTO 11004KT 10SM CLR 26/15 A3017 RMK AO2 T02620153
KPRS 171415Z AUTO 09003KT 10SM CLR 26/15 A3017 RMK AO2 T02560153